sensor_id;sensor_type;location;lat;lon;timestamp;P1;durP1;ratioP1;P2;durP2;ratioP2
67187;SDS011;54117;53.532;49.426;2022-07-29T00:00:21;87.78;;;41.53;;
67187;SDS011;54117;53.532;49.426;2022-07-29T00:02:47;114.07;;;48.05;;
67187;SDS011;54117;53.532;49.426;2022-07-29T00:05:13;102.88;;;44.30;;
67187;SDS011;54117;53.532;49.426;2022-07-29T00:07:39;124.95;;;43.42;;
67187;SDS011;54117;53.532;49.426;2022-07-29T00:10:06;115.47;;;39.72;;
67187;SDS011;54117;53.532;49.426;2022-07-29T00:12:33;106.82;;;37.85;;
67187;SDS011;54117;53.532;49.426;2022-07-29T00:14:59;63.05;;;26.63;;
67187;SDS011;54117;53.532;49.426;2022-07-29T00:17:25;61.22;;;27.52;;
67187;SDS011;54117;53.532;49.426;2022-07-29T00:19:51;51.95;;;20.23;;
67187;SDS011;54117;53.532;49.426;2022-07-29T00:22:18;33.28;;;15.02;;
67187;SDS011;54117;53.532;49.426;2022-07-29T00:24:46;45.17;;;20.80;;
67187;SDS011;54117;53.532;49.426;2022-07-29T00:27:13;40.30;;;20.00;;
67187;SDS011;54117;53.532;49.426;2022-07-29T00:29:39;52.83;;;18.90;;
67187;SDS011;54117;53.532;49.426;2022-07-29T00:32:05;50.47;;;21.55;;
67187;SDS011;54117;53.532;49.426;2022-07-29T00:34:32;44.47;;;19.23;;
67187;SDS011;54117;53.532;49.426;2022-07-29T00:37:17;30.33;;;15.55;;
67187;SDS011;54117;53.532;49.426;2022-07-29T00:39:43;25.48;;;14.40;;
67187;SDS011;54117;53.532;49.426;2022-07-29T00:42:09;23.75;;;13.70;;
67187;SDS011;54117;53.532;49.426;2022-07-29T00:44:36;38.80;;;14.20;;
67187;SDS011;54117;53.532;49.426;2022-07-29T00:47:04;61.08;;;17.90;;
67187;SDS011;54117;53.532;49.426;2022-07-29T00:49:31;97.78;;;21.05;;
67187;SDS011;54117;53.532;49.426;2022-07-29T00:52:00;126.78;;;30.13;;
67187;SDS011;54117;53.532;49.426;2022-07-29T00:54:27;125.97;;;29.33;;
67187;SDS011;54117;53.532;49.426;2022-07-29T00:56:55;121.60;;;27.33;;
67187;SDS011;54117;53.532;49.426;2022-07-29T00:59:26;112.25;;;26.85;;
67187;SDS011;54117;53.532;49.426;2022-07-29T01:01:53;107.20;;;25.08;;
67187;SDS011;54117;53.532;49.426;2022-07-29T01:04:20;99.53;;;27.30;;
67187;SDS011;54117;53.532;49.426;2022-07-29T01:06:47;88.18;;;25.35;;
67187;SDS011;54117;53.532;49.426;2022-07-29T01:09:14;79.38;;;21.25;;
67187;SDS011;54117;53.532;49.426;2022-07-29T01:11:43;82.20;;;20.77;;
67187;SDS011;54117;53.532;49.426;2022-07-29T01:14:10;77.68;;;19.83;;
67187;SDS011;54117;53.532;49.426;2022-07-29T01:16:42;87.97;;;20.40;;
67187;SDS011;54117;53.532;49.426;2022-07-29T01:21:53;79.40;;;18.48;;
67187;SDS011;54117;53.532;49.426;2022-07-29T01:29:39;89.32;;;17.55;;
67187;SDS011;54117;53.532;49.426;2022-07-29T01:32:13;64.32;;;15.60;;
67187;SDS011;54117;53.532;49.426;2022-07-29T01:34:47;48.58;;;14.48;;
67187;SDS011;54117;53.532;49.426;2022-07-29T01:39:52;46.25;;;13.90;;
67187;SDS011;54117;53.532;49.426;2022-07-29T01:47:40;23.85;;;10.95;;
67187;SDS011;54117;53.532;49.426;2022-07-29T01:50:11;27.67;;;11.80;;
67187;SDS011;54117;53.532;49.426;2022-07-29T01:52:47;20.02;;;9.82;;
67187;SDS011;54117;53.532;49.426;2022-07-29T01:55:20;26.63;;;10.85;;
67187;SDS011;54117;53.532;49.426;2022-07-29T01:57:50;18.48;;;11.07;;
67187;SDS011;54117;53.532;49.426;2022-07-29T02:00:16;31.88;;;11.73;;
67187;SDS011;54117;53.532;49.426;2022-07-29T02:02:44;23.52;;;11.80;;
67187;SDS011;54117;53.532;49.426;2022-07-29T02:05:15;31.88;;;11.27;;
67187;SDS011;54117;53.532;49.426;2022-07-29T02:07:44;28.58;;;11.55;;
67187;SDS011;54117;53.532;49.426;2022-07-29T02:10:13;15.57;;;7.68;;
67187;SDS011;54117;53.532;49.426;2022-07-29T02:12:40;23.92;;;11.68;;
67187;SDS011;54117;53.532;49.426;2022-07-29T02:15:09;15.32;;;7.43;;
67187;SDS011;54117;53.532;49.426;2022-07-29T02:17:46;13.85;;;7.10;;
67187;SDS011;54117;53.532;49.426;2022-07-29T02:20:16;20.35;;;9.07;;
67187;SDS011;54117;53.532;49.426;2022-07-29T02:22:43;14.40;;;8.80;;
67187;SDS011;54117;53.532;49.426;2022-07-29T02:25:11;20.40;;;9.32;;
67187;SDS011;54117;53.532;49.426;2022-07-29T02:27:39;53.38;;;29.40;;
67187;SDS011;54117;53.532;49.426;2022-07-29T02:30:06;22.60;;;12.57;;
67187;SDS011;54117;53.532;49.426;2022-07-29T02:32:35;21.55;;;10.60;;
67187;SDS011;54117;53.532;49.426;2022-07-29T02:35:05;17.85;;;8.90;;
67187;SDS011;54117;53.532;49.426;2022-07-29T02:37:34;21.90;;;10.23;;
67187;SDS011;54117;53.532;49.426;2022-07-29T02:40:02;46.88;;;20.17;;
67187;SDS011;54117;53.532;49.426;2022-07-29T02:42:29;26.70;;;13.52;;
67187;SDS011;54117;53.532;49.426;2022-07-29T02:44:57;28.63;;;9.75;;
67187;SDS011;54117;53.532;49.426;2022-07-29T02:47:34;34.17;;;10.45;;
67187;SDS011;54117;53.532;49.426;2022-07-29T02:52:54;27.05;;;8.38;;
67187;SDS011;54117;53.532;49.426;2022-07-29T02:55:29;17.42;;;8.65;;
67187;SDS011;54117;53.532;49.426;2022-07-29T02:58:02;23.02;;;8.05;;
67187;SDS011;54117;53.532;49.426;2022-07-29T03:00:34;25.67;;;8.35;;
67187;SDS011;54117;53.532;49.426;2022-07-29T03:03:04;20.85;;;7.05;;
67187;SDS011;54117;53.532;49.426;2022-07-29T03:05:36;20.98;;;7.15;;
67187;SDS011;54117;53.532;49.426;2022-07-29T03:08:04;27.08;;;8.13;;
67187;SDS011;54117;53.532;49.426;2022-07-29T03:10:32;20.52;;;7.32;;
67187;SDS011;54117;53.532;49.426;2022-07-29T03:12:59;10.80;;;6.30;;
67187;SDS011;54117;53.532;49.426;2022-07-29T03:15:26;8.38;;;5.25;;
67187;SDS011;54117;53.532;49.426;2022-07-29T03:17:53;18.85;;;7.55;;
67187;SDS011;54117;53.532;49.426;2022-07-29T03:20:21;7.47;;;5.05;;
67187;SDS011;54117;53.532;49.426;2022-07-29T03:22:47;7.38;;;5.03;;
67187;SDS011;54117;53.532;49.426;2022-07-29T03:25:15;9.43;;;5.60;;
67187;SDS011;54117;53.532;49.426;2022-07-29T03:27:43;10.18;;;5.20;;
67187;SDS011;54117;53.532;49.426;2022-07-29T03:30:10;9.02;;;5.35;;
67187;SDS011;54117;53.532;49.426;2022-07-29T03:32:37;9.27;;;6.00;;
67187;SDS011;54117;53.532;49.426;2022-07-29T03:35:05;10.95;;;5.18;;
67187;SDS011;54117;53.532;49.426;2022-07-29T03:37:32;11.50;;;5.28;;
67187;SDS011;54117;53.532;49.426;2022-07-29T03:39:59;18.08;;;5.40;;
67187;SDS011;54117;53.532;49.426;2022-07-29T03:42:28;11.55;;;5.18;;
67187;SDS011;54117;53.532;49.426;2022-07-29T03:45:13;9.57;;;5.22;;
67187;SDS011;54117;53.532;49.426;2022-07-29T03:47:45;14.63;;;5.88;;
67187;SDS011;54117;53.532;49.426;2022-07-29T03:52:43;13.13;;;5.22;;
67187;SDS011;54117;53.532;49.426;2022-07-29T03:55:10;13.77;;;5.25;;
67187;SDS011;54117;53.532;49.426;2022-07-29T03:57:37;15.63;;;5.93;;
67187;SDS011;54117;53.532;49.426;2022-07-29T04:00:05;20.77;;;6.75;;
67187;SDS011;54117;53.532;49.426;2022-07-29T04:02:32;30.67;;;7.28;;
67187;SDS011;54117;53.532;49.426;2022-07-29T04:04:59;26.48;;;6.10;;
67187;SDS011;54117;53.532;49.426;2022-07-29T04:07:25;23.55;;;7.65;;
67187;SDS011;54117;53.532;49.426;2022-07-29T04:09:52;25.98;;;6.90;;
67187;SDS011;54117;53.532;49.426;2022-07-29T04:12:18;26.27;;;6.45;;
67187;SDS011;54117;53.532;49.426;2022-07-29T04:14:46;13.85;;;5.13;;
67187;SDS011;54117;53.532;49.426;2022-07-29T04:17:12;26.15;;;8.52;;
67187;SDS011;54117;53.532;49.426;2022-07-29T04:19:38;23.40;;;8.80;;
67187;SDS011;54117;53.532;49.426;2022-07-29T04:22:04;18.83;;;6.30;;
67187;SDS011;54117;53.532;49.426;2022-07-29T04:24:31;29.45;;;7.38;;
67187;SDS011;54117;53.532;49.426;2022-07-29T04:26:57;13.93;;;5.20;;
67187;SDS011;54117;53.532;49.426;2022-07-29T04:29:23;12.18;;;4.93;;
67187;SDS011;54117;53.532;49.426;2022-07-29T04:31:49;5.28;;;4.22;;
67187;SDS011;54117;53.532;49.426;2022-07-29T04:34:16;5.45;;;4.47;;
67187;SDS011;54117;53.532;49.426;2022-07-29T04:36:48;7.93;;;4.53;;
67187;SDS011;54117;53.532;49.426;2022-07-29T04:39:14;11.68;;;5.78;;
67187;SDS011;54117;53.532;49.426;2022-07-29T04:41:43;10.45;;;5.38;;
67187;SDS011;54117;53.532;49.426;2022-07-29T04:44:09;6.70;;;4.80;;
67187;SDS011;54117;53.532;49.426;2022-07-29T04:46:35;6.47;;;4.72;;
67187;SDS011;54117;53.532;49.426;2022-07-29T04:49:02;13.30;;;4.95;;
67187;SDS011;54117;53.532;49.426;2022-07-29T04:51:28;10.73;;;6.80;;
67187;SDS011;54117;53.532;49.426;2022-07-29T04:53:54;11.65;;;6.70;;
67187;SDS011;54117;53.532;49.426;2022-07-29T04:56:20;8.57;;;5.50;;
67187;SDS011;54117;53.532;49.426;2022-07-29T04:58:47;17.75;;;6.20;;
67187;SDS011;54117;53.532;49.426;2022-07-29T05:01:13;8.75;;;5.78;;
67187;SDS011;54117;53.532;49.426;2022-07-29T05:03:40;8.20;;;4.78;;
67187;SDS011;54117;53.532;49.426;2022-07-29T05:06:06;10.40;;;5.07;;
67187;SDS011;54117;53.532;49.426;2022-07-29T05:08:32;9.70;;;4.53;;
67187;SDS011;54117;53.532;49.426;2022-07-29T05:10:58;7.60;;;4.55;;
67187;SDS011;54117;53.532;49.426;2022-07-29T05:16:17;6.35;;;4.07;;
67187;SDS011;54117;53.532;49.426;2022-07-29T05:18:46;8.40;;;4.35;;
67187;SDS011;54117;53.532;49.426;2022-07-29T05:21:20;9.55;;;4.15;;
67187;SDS011;54117;53.532;49.426;2022-07-29T05:24:07;4.40;;;4.00;;
67187;SDS011;54117;53.532;49.426;2022-07-29T05:26:54;7.55;;;3.97;;
67187;SDS011;54117;53.532;49.426;2022-07-29T05:29:21;7.78;;;3.63;;
67187;SDS011;54117;53.532;49.426;2022-07-29T05:31:47;10.30;;;4.55;;
67187;SDS011;54117;53.532;49.426;2022-07-29T05:34:28;8.18;;;4.65;;
67187;SDS011;54117;53.532;49.426;2022-07-29T05:39:41;7.93;;;4.88;;
67187;SDS011;54117;53.532;49.426;2022-07-29T05:42:10;10.25;;;4.60;;
67187;SDS011;54117;53.532;49.426;2022-07-29T05:44:40;5.15;;;3.85;;
67187;SDS011;54117;53.532;49.426;2022-07-29T05:47:06;6.60;;;5.00;;
67187;SDS011;54117;53.532;49.426;2022-07-29T05:49:35;6.60;;;3.85;;
67187;SDS011;54117;53.532;49.426;2022-07-29T05:52:08;13.48;;;4.05;;
67187;SDS011;54117;53.532;49.426;2022-07-29T05:55:13;8.82;;;4.35;;
67187;SDS011;54117;53.532;49.426;2022-07-29T05:57:39;6.70;;;4.40;;
67187;SDS011;54117;53.532;49.426;2022-07-29T06:00:11;6.35;;;3.55;;
67187;SDS011;54117;53.532;49.426;2022-07-29T06:02:38;12.90;;;4.05;;
67187;SDS011;54117;53.532;49.426;2022-07-29T06:05:04;11.50;;;3.88;;
67187;SDS011;54117;53.532;49.426;2022-07-29T06:07:31;6.03;;;3.97;;
67187;SDS011;54117;53.532;49.426;2022-07-29T06:09:59;11.52;;;4.97;;
67187;SDS011;54117;53.532;49.426;2022-07-29T06:12:25;12.90;;;7.78;;
67187;SDS011;54117;53.532;49.426;2022-07-29T06:14:52;8.40;;;4.72;;
67187;SDS011;54117;53.532;49.426;2022-07-29T06:17:18;6.65;;;4.25;;
67187;SDS011;54117;53.532;49.426;2022-07-29T06:19:44;6.13;;;4.00;;
67187;SDS011;54117;53.532;49.426;2022-07-29T06:22:10;11.95;;;4.60;;
67187;SDS011;54117;53.532;49.426;2022-07-29T06:24:37;20.27;;;4.30;;
67187;SDS011;54117;53.532;49.426;2022-07-29T06:27:06;8.15;;;4.72;;
67187;SDS011;54117;53.532;49.426;2022-07-29T06:29:33;11.98;;;5.20;;
67187;SDS011;54117;53.532;49.426;2022-07-29T06:31:59;6.20;;;4.95;;
67187;SDS011;54117;53.532;49.426;2022-07-29T06:34:25;8.15;;;3.90;;
67187;SDS011;54117;53.532;49.426;2022-07-29T06:36:52;6.07;;;4.68;;
67187;SDS011;54117;53.532;49.426;2022-07-29T06:39:18;5.85;;;4.22;;
67187;SDS011;54117;53.532;49.426;2022-07-29T06:41:48;7.93;;;5.47;;
67187;SDS011;54117;53.532;49.426;2022-07-29T06:44:16;12.65;;;6.22;;
67187;SDS011;54117;53.532;49.426;2022-07-29T06:46:43;8.48;;;3.88;;
67187;SDS011;54117;53.532;49.426;2022-07-29T06:49:09;7.85;;;3.90;;
67187;SDS011;54117;53.532;49.426;2022-07-29T06:51:35;3.97;;;3.40;;
67187;SDS011;54117;53.532;49.426;2022-07-29T06:54:04;4.70;;;4.30;;
67187;SDS011;54117;53.532;49.426;2022-07-29T06:56:31;8.50;;;5.03;;
67187;SDS011;54117;53.532;49.426;2022-07-29T06:58:58;4.35;;;4.05;;
67187;SDS011;54117;53.532;49.426;2022-07-29T07:01:25;4.78;;;4.00;;
67187;SDS011;54117;53.532;49.426;2022-07-29T07:03:51;7.50;;;4.03;;
67187;SDS011;54117;53.532;49.426;2022-07-29T07:06:17;8.23;;;4.18;;
67187;SDS011;54117;53.532;49.426;2022-07-29T07:08:46;7.70;;;5.25;;
67187;SDS011;54117;53.532;49.426;2022-07-29T07:11:12;8.48;;;7.65;;
67187;SDS011;54117;53.532;49.426;2022-07-29T07:13:38;6.70;;;4.65;;
67187;SDS011;54117;53.532;49.426;2022-07-29T07:16:04;8.00;;;4.38;;
67187;SDS011;54117;53.532;49.426;2022-07-29T07:18:31;8.60;;;4.50;;
67187;SDS011;54117;53.532;49.426;2022-07-29T07:20:57;9.07;;;4.05;;
67187;SDS011;54117;53.532;49.426;2022-07-29T07:23:24;9.05;;;5.30;;
67187;SDS011;54117;53.532;49.426;2022-07-29T07:25:50;9.57;;;5.55;;
67187;SDS011;54117;53.532;49.426;2022-07-29T07:28:16;7.85;;;4.25;;
67187;SDS011;54117;53.532;49.426;2022-07-29T07:30:44;8.00;;;3.85;;
67187;SDS011;54117;53.532;49.426;2022-07-29T07:33:10;4.65;;;4.13;;
67187;SDS011;54117;53.532;49.426;2022-07-29T07:35:36;5.03;;;4.35;;
67187;SDS011;54117;53.532;49.426;2022-07-29T07:38:03;4.03;;;3.63;;
67187;SDS011;54117;53.532;49.426;2022-07-29T07:40:31;5.45;;;4.05;;
67187;SDS011;54117;53.532;49.426;2022-07-29T07:42:57;9.52;;;4.32;;
67187;SDS011;54117;53.532;49.426;2022-07-29T07:45:24;6.97;;;4.82;;
67187;SDS011;54117;53.532;49.426;2022-07-29T07:47:50;6.07;;;5.45;;
67187;SDS011;54117;53.532;49.426;2022-07-29T07:50:16;6.38;;;5.00;;
67187;SDS011;54117;53.532;49.426;2022-07-29T07:52:49;7.07;;;5.00;;
67187;SDS011;54117;53.532;49.426;2022-07-29T07:55:17;7.13;;;5.47;;
67187;SDS011;54117;53.532;49.426;2022-07-29T07:57:44;7.05;;;5.00;;
67187;SDS011;54117;53.532;49.426;2022-07-29T08:00:12;7.07;;;4.60;;
67187;SDS011;54117;53.532;49.426;2022-07-29T08:02:39;8.18;;;4.60;;
67187;SDS011;54117;53.532;49.426;2022-07-29T08:05:08;6.35;;;5.82;;
67187;SDS011;54117;53.532;49.426;2022-07-29T08:07:37;10.60;;;5.53;;
67187;SDS011;54117;53.532;49.426;2022-07-29T08:10:04;9.70;;;6.30;;
67187;SDS011;54117;53.532;49.426;2022-07-29T08:12:31;7.90;;;5.15;;
67187;SDS011;54117;53.532;49.426;2022-07-29T08:14:57;6.85;;;6.15;;
67187;SDS011;54117;53.532;49.426;2022-07-29T08:17:23;9.05;;;5.38;;
67187;SDS011;54117;53.532;49.426;2022-07-29T08:19:50;6.90;;;5.45;;
67187;SDS011;54117;53.532;49.426;2022-07-29T08:22:16;8.18;;;5.18;;
67187;SDS011;54117;53.532;49.426;2022-07-29T08:24:42;7.05;;;5.43;;
67187;SDS011;54117;53.532;49.426;2022-07-29T08:27:12;6.90;;;5.57;;
67187;SDS011;54117;53.532;49.426;2022-07-29T08:29:38;5.65;;;5.10;;
67187;SDS011;54117;53.532;49.426;2022-07-29T08:32:05;8.55;;;5.13;;
67187;SDS011;54117;53.532;49.426;2022-07-29T08:34:32;9.35;;;5.22;;
67187;SDS011;54117;53.532;49.426;2022-07-29T08:36:58;6.68;;;4.97;;
67187;SDS011;54117;53.532;49.426;2022-07-29T08:39:24;5.88;;;4.75;;
67187;SDS011;54117;53.532;49.426;2022-07-29T08:41:51;4.85;;;3.85;;
67187;SDS011;54117;53.532;49.426;2022-07-29T08:44:18;6.25;;;4.35;;
67187;SDS011;54117;53.532;49.426;2022-07-29T08:46:47;5.50;;;4.47;;
67187;SDS011;54117;53.532;49.426;2022-07-29T08:49:15;6.28;;;5.20;;
67187;SDS011;54117;53.532;49.426;2022-07-29T08:51:42;6.90;;;5.13;;
67187;SDS011;54117;53.532;49.426;2022-07-29T08:54:09;5.88;;;5.20;;
67187;SDS011;54117;53.532;49.426;2022-07-29T08:56:36;7.07;;;4.85;;
67187;SDS011;54117;53.532;49.426;2022-07-29T08:59:04;5.47;;;4.57;;
67187;SDS011;54117;53.532;49.426;2022-07-29T09:01:32;6.22;;;4.57;;
67187;SDS011;54117;53.532;49.426;2022-07-29T09:03:59;4.10;;;3.80;;
67187;SDS011;54117;53.532;49.426;2022-07-29T09:06:29;10.60;;;4.93;;
67187;SDS011;54117;53.532;49.426;2022-07-29T09:08:59;7.20;;;4.47;;
67187;SDS011;54117;53.532;49.426;2022-07-29T09:11:26;5.25;;;4.40;;
67187;SDS011;54117;53.532;49.426;2022-07-29T09:13:53;5.57;;;4.30;;
67187;SDS011;54117;53.532;49.426;2022-07-29T09:16:19;4.78;;;3.75;;
67187;SDS011;54117;53.532;49.426;2022-07-29T09:18:46;5.47;;;4.97;;
67187;SDS011;54117;53.532;49.426;2022-07-29T09:21:13;11.80;;;5.40;;
67187;SDS011;54117;53.532;49.426;2022-07-29T09:24:06;6.18;;;5.53;;
67187;SDS011;54117;53.532;49.426;2022-07-29T09:26:41;7.32;;;5.00;;
67187;SDS011;54117;53.532;49.426;2022-07-29T09:29:12;9.77;;;5.90;;
67187;SDS011;54117;53.532;49.426;2022-07-29T09:31:44;9.95;;;5.53;;
67187;SDS011;54117;53.532;49.426;2022-07-29T09:34:13;5.18;;;4.68;;
67187;SDS011;54117;53.532;49.426;2022-07-29T09:36:44;5.78;;;4.70;;
67187;SDS011;54117;53.532;49.426;2022-07-29T09:39:26;7.05;;;5.05;;
67187;SDS011;54117;53.532;49.426;2022-07-29T09:42:02;6.18;;;4.57;;
67187;SDS011;54117;53.532;49.426;2022-07-29T09:44:44;9.03;;;5.00;;
67187;SDS011;54117;53.532;49.426;2022-07-29T09:47:13;10.40;;;4.70;;
67187;SDS011;54117;53.532;49.426;2022-07-29T09:49:51;8.45;;;6.40;;
67187;SDS011;54117;53.532;49.426;2022-07-29T09:52:28;8.30;;;5.80;;
67187;SDS011;54117;53.532;49.426;2022-07-29T09:55:08;8.88;;;5.80;;
67187;SDS011;54117;53.532;49.426;2022-07-29T09:57:35;6.20;;;5.55;;
67187;SDS011;54117;53.532;49.426;2022-07-29T10:00:06;8.05;;;5.53;;
67187;SDS011;54117;53.532;49.426;2022-07-29T10:02:35;10.98;;;5.60;;
67187;SDS011;54117;53.532;49.426;2022-07-29T10:05:03;6.85;;;5.05;;
67187;SDS011;54117;53.532;49.426;2022-07-29T10:07:45;9.02;;;4.80;;
67187;SDS011;54117;53.532;49.426;2022-07-29T10:10:19;6.30;;;5.22;;
67187;SDS011;54117;53.532;49.426;2022-07-29T10:13:04;7.88;;;4.47;;
67187;SDS011;54117;53.532;49.426;2022-07-29T10:15:40;7.50;;;5.43;;
67187;SDS011;54117;53.532;49.426;2022-07-29T10:18:12;7.70;;;5.22;;
67187;SDS011;54117;53.532;49.426;2022-07-29T10:20:40;6.05;;;5.13;;
67187;SDS011;54117;53.532;49.426;2022-07-29T10:23:07;5.95;;;5.03;;
67187;SDS011;54117;53.532;49.426;2022-07-29T10:25:35;8.90;;;5.53;;
67187;SDS011;54117;53.532;49.426;2022-07-29T10:28:05;8.93;;;5.18;;
67187;SDS011;54117;53.532;49.426;2022-07-29T10:30:34;9.27;;;5.93;;
67187;SDS011;54117;53.532;49.426;2022-07-29T10:33:08;6.15;;;4.85;;
67187;SDS011;54117;53.532;49.426;2022-07-29T10:38:34;7.45;;;5.45;;
67187;SDS011;54117;53.532;49.426;2022-07-29T10:44:14;11.80;;;6.68;;
67187;SDS011;54117;53.532;49.426;2022-07-29T10:46:43;7.97;;;6.85;;
67187;SDS011;54117;53.532;49.426;2022-07-29T10:59:49;11.20;;;6.93;;
67187;SDS011;54117;53.532;49.426;2022-07-29T11:02:50;13.52;;;7.57;;
67187;SDS011;54117;53.532;49.426;2022-07-29T11:05:16;10.68;;;6.78;;
67187;SDS011;54117;53.532;49.426;2022-07-29T11:13:09;7.28;;;5.90;;
67187;SDS011;54117;53.532;49.426;2022-07-29T11:15:54;11.52;;;6.60;;
67187;SDS011;54117;53.532;49.426;2022-07-29T11:18:21;7.82;;;6.20;;
67187;SDS011;54117;53.532;49.426;2022-07-29T11:20:48;9.95;;;6.63;;
67187;SDS011;54117;53.532;49.426;2022-07-29T11:31:20;11.25;;;7.45;;
67187;SDS011;54117;53.532;49.426;2022-07-29T11:34:19;12.73;;;8.23;;
67187;SDS011;54117;53.532;49.426;2022-07-29T11:45:02;8.07;;;7.10;;
67187;SDS011;54117;53.532;49.426;2022-07-29T11:47:48;10.25;;;7.97;;
67187;SDS011;54117;53.532;49.426;2022-07-29T11:50:27;15.52;;;7.85;;
67187;SDS011;54117;53.532;49.426;2022-07-29T11:52:55;12.10;;;8.13;;
67187;SDS011;54117;53.532;49.426;2022-07-29T11:55:25;7.22;;;6.25;;
67187;SDS011;54117;53.532;49.426;2022-07-29T11:57:59;8.07;;;7.13;;
67187;SDS011;54117;53.532;49.426;2022-07-29T12:00:28;13.05;;;7.43;;
67187;SDS011;54117;53.532;49.426;2022-07-29T12:03:00;10.40;;;7.20;;
67187;SDS011;54117;53.532;49.426;2022-07-29T12:05:46;8.05;;;6.75;;
67187;SDS011;54117;53.532;49.426;2022-07-29T12:08:14;9.57;;;7.63;;
67187;SDS011;54117;53.532;49.426;2022-07-29T12:10:44;8.18;;;7.30;;
67187;SDS011;54117;53.532;49.426;2022-07-29T12:13:13;11.50;;;7.30;;
67187;SDS011;54117;53.532;49.426;2022-07-29T12:15:41;8.88;;;7.43;;
67187;SDS011;54117;53.532;49.426;2022-07-29T12:18:10;11.63;;;8.02;;
67187;SDS011;54117;53.532;49.426;2022-07-29T12:20:40;11.23;;;8.13;;
67187;SDS011;54117;53.532;49.426;2022-07-29T12:23:07;10.68;;;8.50;;
67187;SDS011;54117;53.532;49.426;2022-07-29T12:25:44;11.45;;;7.97;;
67187;SDS011;54117;53.532;49.426;2022-07-29T12:28:14;12.32;;;8.13;;
67187;SDS011;54117;53.532;49.426;2022-07-29T12:30:48;12.50;;;8.35;;
67187;SDS011;54117;53.532;49.426;2022-07-29T12:33:22;12.65;;;7.88;;
67187;SDS011;54117;53.532;49.426;2022-07-29T12:35:56;13.00;;;8.10;;
67187;SDS011;54117;53.532;49.426;2022-07-29T12:38:24;11.90;;;8.23;;
67187;SDS011;54117;53.532;49.426;2022-07-29T12:40:54;10.05;;;7.53;;
67187;SDS011;54117;53.532;49.426;2022-07-29T12:43:21;9.18;;;7.72;;
67187;SDS011;54117;53.532;49.426;2022-07-29T12:45:53;9.07;;;7.47;;
67187;SDS011;54117;53.532;49.426;2022-07-29T12:48:36;11.07;;;8.02;;
67187;SDS011;54117;53.532;49.426;2022-07-29T12:51:07;12.35;;;9.75;;
67187;SDS011;54117;53.532;49.426;2022-07-29T12:53:36;9.73;;;7.80;;
67187;SDS011;54117;53.532;49.426;2022-07-29T12:56:04;12.90;;;8.38;;
67187;SDS011;54117;53.532;49.426;2022-07-29T12:58:41;11.63;;;8.20;;
67187;SDS011;54117;53.532;49.426;2022-07-29T13:01:11;8.30;;;7.20;;
67187;SDS011;54117;53.532;49.426;2022-07-29T13:06:33;10.38;;;7.65;;
67187;SDS011;54117;53.532;49.426;2022-07-29T13:09:03;13.75;;;8.18;;
67187;SDS011;54117;53.532;49.426;2022-07-29T13:11:40;12.75;;;7.85;;
67187;SDS011;54117;53.532;49.426;2022-07-29T13:14:08;8.35;;;7.43;;
67187;SDS011;54117;53.532;49.426;2022-07-29T13:16:36;12.30;;;9.23;;
67187;SDS011;54117;53.532;49.426;2022-07-29T13:19:31;11.30;;;8.07;;
67187;SDS011;54117;53.532;49.426;2022-07-29T13:22:01;9.32;;;7.50;;
67187;SDS011;54117;53.532;49.426;2022-07-29T13:24:28;8.82;;;7.60;;
67187;SDS011;54117;53.532;49.426;2022-07-29T13:26:54;10.88;;;7.05;;
67187;SDS011;54117;53.532;49.426;2022-07-29T13:29:20;14.82;;;7.82;;
67187;SDS011;54117;53.532;49.426;2022-07-29T13:31:47;9.98;;;7.93;;
67187;SDS011;54117;53.532;49.426;2022-07-29T13:34:13;8.60;;;7.53;;
67187;SDS011;54117;53.532;49.426;2022-07-29T13:36:39;9.38;;;8.18;;
67187;SDS011;54117;53.532;49.426;2022-07-29T13:39:06;9.93;;;7.25;;
67187;SDS011;54117;53.532;49.426;2022-07-29T13:41:32;9.93;;;7.82;;
67187;SDS011;54117;53.532;49.426;2022-07-29T13:43:58;10.38;;;7.53;;
67187;SDS011;54117;53.532;49.426;2022-07-29T13:46:24;11.65;;;8.13;;
67187;SDS011;54117;53.532;49.426;2022-07-29T13:48:50;11.65;;;8.05;;
67187;SDS011;54117;53.532;49.426;2022-07-29T13:51:17;9.60;;;8.07;;
67187;SDS011;54117;53.532;49.426;2022-07-29T13:53:43;9.10;;;7.90;;
67187;SDS011;54117;53.532;49.426;2022-07-29T13:56:09;13.35;;;8.98;;
67187;SDS011;54117;53.532;49.426;2022-07-29T13:58:35;12.55;;;8.68;;
67187;SDS011;54117;53.532;49.426;2022-07-29T14:01:02;10.18;;;8.30;;
67187;SDS011;54117;53.532;49.426;2022-07-29T14:03:28;11.25;;;8.55;;
67187;SDS011;54117;53.532;49.426;2022-07-29T14:05:54;14.13;;;8.55;;
67187;SDS011;54117;53.532;49.426;2022-07-29T14:08:21;24.95;;;14.80;;
67187;SDS011;54117;53.532;49.426;2022-07-29T14:10:48;16.20;;;10.00;;
67187;SDS011;54117;53.532;49.426;2022-07-29T14:13:15;17.75;;;9.63;;
67187;SDS011;54117;53.532;49.426;2022-07-29T14:15:41;10.02;;;8.77;;
67187;SDS011;54117;53.532;49.426;2022-07-29T14:18:07;15.38;;;8.43;;
67187;SDS011;54117;53.532;49.426;2022-07-29T14:20:33;12.05;;;8.55;;
67187;SDS011;54117;53.532;49.426;2022-07-29T14:22:59;11.07;;;8.45;;
67187;SDS011;54117;53.532;49.426;2022-07-29T14:25:26;9.40;;;7.35;;
67187;SDS011;54117;53.532;49.426;2022-07-29T14:27:52;9.18;;;7.63;;
67187;SDS011;54117;53.532;49.426;2022-07-29T14:30:19;10.80;;;7.95;;
67187;SDS011;54117;53.532;49.426;2022-07-29T14:32:46;15.50;;;8.30;;
67187;SDS011;54117;53.532;49.426;2022-07-29T14:35:12;11.38;;;7.78;;
67187;SDS011;54117;53.532;49.426;2022-07-29T14:37:38;12.77;;;8.75;;
67187;SDS011;54117;53.532;49.426;2022-07-29T14:40:05;12.85;;;8.35;;
67187;SDS011;54117;53.532;49.426;2022-07-29T14:42:31;8.55;;;6.93;;
67187;SDS011;54117;53.532;49.426;2022-07-29T14:44:58;11.45;;;8.10;;
67187;SDS011;54117;53.532;49.426;2022-07-29T14:47:24;13.93;;;9.75;;
67187;SDS011;54117;53.532;49.426;2022-07-29T14:49:50;14.65;;;8.38;;
67187;SDS011;54117;53.532;49.426;2022-07-29T14:52:16;15.48;;;8.70;;
67187;SDS011;54117;53.532;49.426;2022-07-29T14:54:43;14.02;;;8.70;;
67187;SDS011;54117;53.532;49.426;2022-07-29T14:57:09;13.63;;;8.25;;
67187;SDS011;54117;53.532;49.426;2022-07-29T14:59:35;13.82;;;8.18;;
67187;SDS011;54117;53.532;49.426;2022-07-29T15:02:02;10.30;;;6.55;;
67187;SDS011;54117;53.532;49.426;2022-07-29T15:04:28;10.70;;;8.70;;
67187;SDS011;54117;53.532;49.426;2022-07-29T15:06:54;11.50;;;8.30;;
67187;SDS011;54117;53.532;49.426;2022-07-29T15:09:21;13.68;;;8.77;;
67187;SDS011;54117;53.532;49.426;2022-07-29T15:11:47;9.23;;;8.20;;
67187;SDS011;54117;53.532;49.426;2022-07-29T15:14:13;14.63;;;7.88;;
67187;SDS011;54117;53.532;49.426;2022-07-29T15:16:39;9.82;;;7.57;;
67187;SDS011;54117;53.532;49.426;2022-07-29T15:19:08;10.65;;;6.95;;
67187;SDS011;54117;53.532;49.426;2022-07-29T15:21:34;14.35;;;7.70;;
67187;SDS011;54117;53.532;49.426;2022-07-29T15:24:01;13.25;;;7.30;;
67187;SDS011;54117;53.532;49.426;2022-07-29T15:26:27;13.02;;;8.57;;
67187;SDS011;54117;53.532;49.426;2022-07-29T15:28:53;14.50;;;9.90;;
67187;SDS011;54117;53.532;49.426;2022-07-29T15:31:21;17.88;;;8.75;;
67187;SDS011;54117;53.532;49.426;2022-07-29T15:33:47;12.98;;;7.45;;
67187;SDS011;54117;53.532;49.426;2022-07-29T15:36:14;17.85;;;7.25;;
67187;SDS011;54117;53.532;49.426;2022-07-29T15:38:40;18.83;;;7.50;;
67187;SDS011;54117;53.532;49.426;2022-07-29T15:41:06;15.23;;;8.00;;
67187;SDS011;54117;53.532;49.426;2022-07-29T15:43:33;13.65;;;8.50;;